• Join FlightAware (Why Join?)
  • Login
  • US Flag 
10:04AM EDT


 

Airport Tracker/Info


-or-


 

Live Flight TrackerFlight Track Log ✈ N804ER ✈ 24-May-2013 ✈ KTOA - KCMA

Flight Track Log - Related Links

Times and Time Zones

All times are in EDT time to prevent confusion due to time zone crossing. See the N804ER flight status page for this flight to view local times or setup timezone preferences in your user account.

Time Position Orientation Groundspeed Altitude Reporting Facility
EDT Latitude Longitude Course Direction KTS MPH feet Rate Location/Type
06:57PM 33.8167 -118.3667 304° West 75 86 1,300  Level Southern California TRACON
06:58PM 33.8333 -118.3833 320° Northwest 87 100 2,000 600 Climbing Southern California TRACON
06:59PM 33.8300 -118.3864 217° Southwest 87 100 2,200 720 Climbing Los Angeles Center
07:00PM 33.8417 -118.3606 61° Northeast 84 97 3,100 720 Climbing Los Angeles Center
07:01PM 33.8594 -118.3531 19° North 100 115 3,700 480 Climbing Los Angeles Center
07:02PM 33.8819 -118.3700 328° Northwest 97 112 4,200 180 Climbing Los Angeles Center
07:03PM 33.8842 -118.5143 304° West  Level FlightAware Approximate
07:03PM 33.9108 -118.3897 330° Northwest 106 122 4,100  Level Los Angeles Center
07:04PM 33.9428 -118.4108 331° Northwest 119 137 4,200  Climbing Los Angeles Center
07:05PM 33.9786 -118.4372 329° Northwest 124 143 4,100 -60 Descending Los Angeles Center
07:06PM 34.0086 -118.4583 330° Northwest 126 145 4,100  Level Los Angeles Center
07:07PM 34.0289 -118.4817 316° Northwest 122 140 4,100  Level Los Angeles Center
07:08PM 34.0581 -118.5167 315° West 120 138 4,100 -60 Level Los Angeles Center
07:09PM 34.0831 -118.5503 312° West 123 142 4,000  Descending Los Angeles Center
07:10PM 34.1033 -118.5750 315° West 123 142 4,100  Climbing Los Angeles Center
07:11PM 34.1300 -118.6111 312° West 121 139 4,100  Level Los Angeles Center
07:12PM 34.1544 -118.6392 316° Northwest 121 139 4,200  Climbing Los Angeles Center
07:13PM 34.1783 -118.6633 320° Northwest 118 136 4,200  Level Los Angeles Center
07:14PM 34.2006 -118.6914 314° West 116 133 4,200  Level Los Angeles Center
07:15PM 34.2053 -118.7042 294° West 121 139 4,200 -120 Level Los Angeles Center
07:16PM 34.2144 -118.7353 290° West 117 135 4,100 -60 Descending Los Angeles Center
07:16PM 34.2150 -118.7706 271° West 116 133 4,100 -180 Level Los Angeles Center
07:18PM 34.2092 -118.8072 259° West 109 125 3,800 -360 Descending Los Angeles Center
07:19PM 34.2097 -118.8486 271° West 115 132 3,400 -360 Descending Los Angeles Center
07:19PM 34.2128 -118.8839 276° West 121 139 3,100 -300 Descending Los Angeles Center
07:21PM 34.2131 -118.9200 271° West 118 136 2,900 -180 Descending Los Angeles Center
07:22PM 34.2111 -118.9536 266° West 116 133 2,800 -480 Descending Los Angeles Center
07:22PM 34.2097 -118.9736 265° West 73 84 2,000 -600 Descending Los Angeles Center
07:23PM 34.2117 -119.0014 275° West 77 89 1,700 -300 Descending Los Angeles Center